^^
Grace C. Lehan Memorial Weather Station Historical Data
Daily Summary for August 06, 2022 Units:  Metric    English   Both
Daily Weekly Monthly Yearly
  High: Low: Average:
Temperature: 35.2 °C 23.6 °C 29.4 °C
Dew Point: 25.5 °C 22.1 °C 23.4 °C
Humidity: 93.3% 50% 72%
Wind Speed: 2.9km/h 0km/h 0.3km/h
Wind Gust: 19.3km/h - -
Wind- - SW
Pressure: 1021.6 hPa 1018.5 hPa -
Precipitation: 0 mm    
 
 
Tabular Data for August 06, 2022
Time Temperature Dew Point Pressure Wind Wind Speed Wind Gust Humidity Rainfall Rate (Hourly) solar
00:00 26.6 °C 22.6 °C 1019.5 hPa Calm     79% 0 mm 0 W/m2
00:09 26.4 °C 22.5 °C 1019.5 hPa Calm     79% 0 mm 0 W/m2
00:14 26.4 °C 22.5 °C 1019.5 hPa Calm     79.4% 0 mm 0 W/m2
00:19 26.3 °C 22.6 °C 1019.5 hPa Calm     80% 0 mm 0 W/m2
00:24 26.2 °C 22.5 °C 1019.5 hPa Calm     80% 0 mm 0 W/m2
00:29 26.2 °C 22.4 °C 1019.5 hPa Calm     80% 0 mm 0 W/m2
00:34 26.1 °C 22.4 °C 1019.5 hPa Calm     80.2% 0 mm 0 W/m2
00:39 26.1 °C 22.6 °C 1019.5 hPa Calm     81% 0 mm 0 W/m2
00:44 25.9 °C 22.4 °C 1019.5 hPa Calm     81% 0 mm 0 W/m2
00:49 25.9 °C 22.4 °C 1019.5 hPa Calm     81.2% 0 mm 0 W/m2
00:54 25.9 °C 22.6 °C 1019.5 hPa Calm     82% 0 mm 0 W/m2
00:59 25.8 °C 22.6 °C 1019.5 hPa Calm     82% 0 mm 0 W/m2
01:04 25.8 °C 22.5 °C 1019.5 hPa Calm     82% 0 mm 0 W/m2
01:09 25.7 °C 22.4 °C 1019.5 hPa Calm     82% 0 mm 0 W/m2
01:14 25.7 °C 22.4 °C 1019.5 hPa Calm     82.1% 0 mm 0 W/m2
01:19 25.6 °C 22.5 °C 1019.5 hPa Calm     83% 0 mm 0 W/m2
01:24 25.5 °C 22.4 °C 1019.5 hPa Calm     83% 0 mm 0 W/m2
01:29 25.4 °C 22.3 °C 1019.5 hPa Calm     83% 0 mm 0 W/m2
01:34 25.4 °C 22.4 °C 1019.5 hPa Calm     83.9% 0 mm 0 W/m2
01:39 25.3 °C 22.4 °C 1019.5 hPa Calm     84% 0 mm 0 W/m2
01:44 25.3 °C 22.4 °C 1019.5 hPa Calm     84% 0 mm 0 W/m2
01:49 25.3 °C 22.3 °C 1019.9 hPa Calm     84% 0 mm 0 W/m2
01:54 25.2 °C 22.3 °C 1019.9 hPa Calm     84% 0 mm 0 W/m2
01:59 25.2 °C 22.3 °C 1019.9 hPa Calm     84% 0 mm 0 W/m2
02:04 25.1 °C 22.4 °C 1019.9 hPa Calm     85% 0 mm 0 W/m2
02:09 25.1 °C 22.4 °C 1019.9 hPa Calm     85% 0 mm 0 W/m2
02:14 25.1 °C 22.3 °C 1019.9 hPa Calm     85% 0 mm 0 W/m2
02:19 25 °C 22.4 °C 1019.9 hPa Calm     85.5% 0 mm 0 W/m2
02:24 24.9 °C 22.4 °C 1019.9 hPa Calm     86% 0 mm 0 W/m2
02:29 24.9 °C 22.4 °C 1019.9 hPa Calm     86% 0 mm 0 W/m2
02:34 24.9 °C 22.5 °C 1019.9 hPa Calm     86.6% 0 mm 0 W/m2
02:39 24.9 °C 22.6 °C 1019.9 hPa Calm     87% 0 mm 0 W/m2
02:44 24.8 °C 22.5 °C 1019.9 hPa Calm     87% 0 mm 0 W/m2
02:49 24.8 °C 22.5 °C 1020.2 hPa Calm     87% 0 mm 0 W/m2
02:54 24.8 °C 22.6 °C 1020.2 hPa Calm     87.3% 0 mm 0 W/m2
02:59 24.7 °C 22.6 °C 1020.2 hPa Calm     88% 0 mm 0 W/m2
03:03 24.7 °C 22.6 °C 1020.2 hPa Calm     88% 0 mm 0 W/m2
03:09 24.7 °C 22.6 °C 1020.2 hPa Calm     88% 0 mm 0 W/m2
03:14 24.7 °C 22.6 °C 1020.2 hPa Calm     88% 0 mm 0 W/m2
03:19 24.6 °C 22.5 °C 1020.2 hPa Calm     88% 0 mm 0 W/m2
03:24 24.6 °C 22.6 °C 1020.2 hPa Calm     88.6% 0 mm 0 W/m2
03:29 24.6 °C 22.7 °C 1020.2 hPa Calm     89% 0 mm 0 W/m2
03:34 24.6 °C 22.7 °C 1020.2 hPa Calm     89% 0 mm 0 W/m2
03:39 24.6 °C 22.6 °C 1019.9 hPa Calm     89% 0 mm 0 W/m2
03:44 24.6 °C 22.6 °C 1019.9 hPa Calm     89% 0 mm 0 W/m2
03:49 24.6 °C 22.6 °C 1019.9 hPa Calm     89% 0 mm 0 W/m2
03:54 24.5 °C 22.6 °C 1019.9 hPa Calm     89% 0 mm 0 W/m2
03:59 24.5 °C 22.6 °C 1020.2 hPa Calm     89% 0 mm 0 W/m2
04:00 24.5 °C 22.6 °C 1020.2 hPa Calm     89% 0 mm 0 W/m2
04:09 24.4 °C 22.6 °C 1020.2 hPa Calm     89.5% 0 mm 0 W/m2
04:14 24.4 °C 22.7 °C 1020.2 hPa Calm     90% 0 mm 0 W/m2
04:19 24.4 °C 22.7 °C 1020.2 hPa Calm     90% 0 mm 0 W/m2
04:24 24.3 °C 22.6 °C 1020.2 hPa Calm     90% 0 mm 0 W/m2
04:29 24.3 °C 22.6 °C 1020.2 hPa Calm     90% 0 mm 0 W/m2
04:34 24.3 °C 22.6 °C 1020.2 hPa Calm     90% 0 mm 0 W/m2
04:39 24.3 °C 22.5 °C 1020.5 hPa Calm     90% 0 mm 0 W/m2
04:44 24.2 °C 22.5 °C 1020.5 hPa Calm     90% 0 mm 0 W/m2
04:49 24.2 °C 22.4 °C 1020.5 hPa Calm     90% 0 mm 0 W/m2
04:54 24.1 °C 22.4 °C 1020.5 hPa Calm     90% 0 mm 0 W/m2
04:59 24.1 °C 22.3 °C 1020.2 hPa Calm     90% 0 mm 0 W/m2
05:04 24.1 °C 22.3 °C 1020.2 hPa Calm     90% 0 mm 0 W/m2
05:09 24 °C 22.3 °C 1020.5 hPa Calm     90% 0 mm 0 W/m2
05:14 23.9 °C 22.3 °C 1020.5 hPa Calm     90.8% 0 mm 0 W/m2
05:19 23.9 °C 22.4 °C 1020.5 hPa Calm     91% 0 mm 0 W/m2
05:24 23.9 °C 22.3 °C 1020.5 hPa Calm     91% 0 mm 0 W/m2
05:29 23.8 °C 22.3 °C 1020.5 hPa Calm     91% 0 mm 0 W/m2
05:34 23.8 °C 22.2 °C 1020.5 hPa Calm     91% 0 mm 0 W/m2
05:39 23.8 °C 22.2 °C 1020.5 hPa Calm     91% 0 mm 0 W/m2
05:44 23.7 °C 22.2 °C 1020.5 hPa Calm     91% 0 mm 0 W/m2
05:49 23.7 °C 22.2 °C 1020.9 hPa Calm     91% 0 mm 0 W/m2
05:54 23.7 °C 22.1 °C 1020.9 hPa Calm     91% 0 mm 5 W/m2
05:59 23.7 °C 22.1 °C 1020.9 hPa Calm     91% 0 mm 7 W/m2
06:04 23.6 °C 22.1 °C 1020.9 hPa Calm     91% 0 mm 11 W/m2
06:09 23.6 °C 22.2 °C 1020.9 hPa Calm     91.5% 0 mm 12 W/m2
06:14 23.6 °C 22.2 °C 1020.9 hPa Calm     92% 0 mm 14 W/m2
06:19 23.6 °C 22.3 °C 1020.9 hPa Calm     92% 0 mm 14 W/m2
06:24 23.7 °C 22.3 °C 1020.9 hPa Calm     92% 0 mm 14 W/m2
06:29 23.7 °C 22.3 °C 1021.2 hPa Calm     92% 0 mm 18 W/m2
06:34 23.7 °C 22.3 °C 1021.2 hPa Calm     92% 0 mm 25 W/m2
06:39 23.7 °C 22.3 °C 1021.2 hPa Calm     92% 0 mm 25 W/m2
06:44 23.7 °C 22.3 °C 1021.2 hPa Calm     92% 0 mm 32 W/m2
06:49 23.8 °C 22.4 °C 1021.2 hPa Calm     92.3% 0 mm 58 W/m2
06:54 23.9 °C 22.7 °C 1021.2 hPa Calm     93% 0 mm 77 W/m2
06:59 24.1 °C 22.9 °C 1021.2 hPa Calm     93% 0 mm 125 W/m2
07:04 24.3 °C 23.2 °C 1021.2 hPa Calm     93.3% 0 mm 176 W/m2
07:09 24.6 °C 23.4 °C 1021.2 hPa Calm     93% 0 mm 186 W/m2
07:14 24.9 °C 23.6 °C 1021.6 hPa Calm     91.9% 0 mm 169 W/m2
07:19 25.3 °C 23.7 °C 1021.6 hPa Calm     90.7% 0 mm 188 W/m2
07:24 25.8 °C 23.9 °C 1021.6 hPa Calm     89.5% 0 mm 192 W/m2
07:29 26.1 °C 23.9 °C 1021.6 hPa Calm     87.6% 0 mm 232 W/m2
07:34 26.4 °C 23.9 °C 1021.6 hPa Calm     86% 0 mm 248 W/m2
07:39 26.9 °C 24.1 °C 1021.6 hPa Calm     84.5% 0 mm 262 W/m2
07:44 27.2 °C 24.1 °C 1021.6 hPa Calm     82.9% 0 mm 278 W/m2
07:49 27.6 °C 24.2 °C 1021.6 hPa Calm     81.6% 0 mm 294 W/m2
07:54 27.9 °C 24.2 °C 1021.6 hPa Calm     80% 0 mm 309 W/m2
07:59 28.3 °C 24.2 °C 1021.6 hPa Calm     78.8% 0 mm 327 W/m2
08:09 28.8 °C 24.4 °C 1021.6 hPa Calm     76.9% 0 mm 355 W/m2
08:14 29.2 °C 24.5 °C 1021.6 hPa Calm     76% 0 mm 378 W/m2
08:19 29.4 °C 24.6 °C 1021.6 hPa Calm     75.1% 0 mm 394 W/m2
08:24 29.7 °C 24.6 °C 1021.6 hPa Calm     74.3% 0 mm 403 W/m2
08:29 29.8 °C 24.5 °C 1021.6 hPa Calm     72.9% 0 mm 420 W/m2
08:34 30.1 °C 24.7 °C 1021.6 hPa Calm     73.2% 0 mm 436 W/m2
08:39 30.3 °C 24.9 °C 1021.6 hPa Calm     72.6% 0 mm 452 W/m2
08:44 30.6 °C 24.6 °C 1021.6 hPa Calm     70.4% 0 mm 503 W/m2
08:49 30.7 °C 24.6 °C 1021.6 hPa Calm     70.3% 0 mm 519 W/m2
08:54 30.6 °C 24.7 °C 1021.6 hPa Calm     70.5% 0 mm 592 W/m2
08:59 30.7 °C 25 °C 1021.6 hPa Calm     71.5% 0 mm 582 W/m2
09:04 31 °C 24.8 °C 1021.6 hPa Calm     69.5% 0 mm 548 W/m2
09:09 31.3 °C 24.9 °C 1021.6 hPa Calm     69% 0 mm 538 W/m2
09:14 31.6 °C 24.8 °C 1021.6 hPa Calm   3.2 km/h 67.7% 0 mm 555 W/m2
09:19 31.7 °C 24.8 °C 1021.6 hPa Calm   3.2 km/h 67.1% 0 mm 571 W/m2
09:24 31.8 °C 24.9 °C 1021.2 hPa Calm   3.2 km/h 67.1% 0 mm 582 W/m2
09:29 31.8 °C 24.8 °C 1021.6 hPa Calm   3.2 km/h 66.5% 0 mm 596 W/m2
09:34 31.8 °C 24.9 °C 1021.6 hPa Calm   3.2 km/h 67% 0 mm 612 W/m2
09:39 32 °C 25.2 °C 1021.2 hPa Calm   3.2 km/h 67.2% 0 mm 624 W/m2
09:44 32.1 °C 25.2 °C 1021.2 hPa Calm   3.2 km/h 66.7% 0 mm 638 W/m2
09:49 32.3 °C 25.4 °C 1021.2 hPa WSW 0.2 km/h 3.2 km/h 66.9% 0 mm 650 W/m2
09:54 32.4 °C 24.9 °C 1021.2 hPa SW 0.3 km/h 6.4 km/h 64.6% 0 mm 664 W/m2
09:59 32.3 °C 25.1 °C 1021.2 hPa Calm   6.4 km/h 65.5% 0 mm 677 W/m2
10:04 32.3 °C 25.1 °C 1021.2 hPa SW 0.2 km/h 6.4 km/h 65.9% 0 mm 687 W/m2
10:09 32.3 °C 25 °C 1021.2 hPa Calm   6.4 km/h 65.5% 0 mm 694 W/m2
10:14 32.4 °C 25.2 °C 1021.2 hPa SW 0.5 km/h 11.3 km/h 65.7% 0 mm 707 W/m2
10:19 32.6 °C 25.5 °C 1021.2 hPa WSW 0.2 km/h 11.3 km/h 66.2% 0 mm 740 W/m2
10:24 32.8 °C 25.2 °C 1021.2 hPa SW 0.2 km/h 11.3 km/h 64.2% 0 mm 805 W/m2
10:29 32.8 °C 24.9 °C 1021.2 hPa South 0.5 km/h 11.3 km/h 63.4% 0 mm 819 W/m2
10:34 32.7 °C 25.1 °C 1021.2 hPa Calm   11.3 km/h 64.5% 0 mm 823 W/m2
10:39 32.7 °C 25.5 °C 1021.2 hPa Calm     65.8% 0 mm 816 W/m2
10:44 32.7 °C 25.2 °C 1021.2 hPa SSW 0.2 km/h 6.4 km/h 64.5% 0 mm 668 W/m2
10:49 32.7 °C 25.2 °C 1021.2 hPa SW 0.2 km/h 6.4 km/h 65% 0 mm 605 W/m2
10:54 32.8 °C 25.1 °C 1020.9 hPa Calm   6.4 km/h 64% 0 mm 844 W/m2
10:59 32.9 °C 25.2 °C 1020.9 hPa Calm   6.4 km/h 63.8% 0 mm 844 W/m2
11:04 33.2 °C 25.3 °C 1020.5 hPa SSW 0.3 km/h 6.4 km/h 63.5% 0 mm 819 W/m2
11:09 33.4 °C 25.1 °C 1020.5 hPa South 1 km/h 8 km/h 61.9% 0 mm 893 W/m2
11:14 33.3 °C 25.2 °C 1020.5 hPa South 0.2 km/h 8 km/h 62.7% 0 mm 896 W/m2
11:19 33.4 °C 25.3 °C 1020.5 hPa SE 0.3 km/h 8 km/h 62.7% 0 mm 956 W/m2
11:24 33.6 °C 24.9 °C 1020.5 hPa SW 0.6 km/h 8 km/h 60.6% 0 mm 937 W/m2
11:29 33.7 °C 24.7 °C 1020.5 hPa SW 1.1 km/h 8 km/h 59.5% 0 mm 891 W/m2
11:34 33.4 °C 24.6 °C 1020.5 hPa WSW 0.8 km/h 19.3 km/h 59.9% 0 mm 983 W/m2
11:39 33.4 °C 25 °C 1020.5 hPa West 0.2 km/h 19.3 km/h 61.3% 0 mm 940 W/m2
11:44 33.7 °C 24.9 °C 1020.5 hPa SW 1.4 km/h 19.3 km/h 60.2% 0 mm 977 W/m2
11:49 34.1 °C 25.2 °C 1020.5 hPa WSW 0.8 km/h 19.3 km/h 60.1% 0 mm 970 W/m2
11:54 34.5 °C 25.2 °C 1020.5 hPa SW 1 km/h 19.3 km/h 58.4% 0 mm 970 W/m2
11:59 34.7 °C 24.5 °C 1020.5 hPa Calm   19.3 km/h 55.7% 0 mm 918 W/m2
12:00 34.7 °C 24.6 °C 1020.5 hPa Calm   19.3 km/h 56% 0 mm 918 W/m2
12:09 34.7 °C 24.5 °C 1020.5 hPa WSW 0.2 km/h 6.4 km/h 55.6% 0 mm 951 W/m2
12:14 34.8 °C 24.6 °C 1020.5 hPa SW 1.1 km/h 14.5 km/h 55.4% 0 mm 960 W/m2
12:19 34.9 °C 24.6 °C 1020.2 hPa WSW 1.6 km/h 14.5 km/h 55% 0 mm 947 W/m2
12:24 34.9 °C 24 °C 1020.2 hPa WSW 1 km/h 14.5 km/h 53.5% 0 mm 946 W/m2
12:29 34.7 °C 24.1 °C 1020.2 hPa SW 1 km/h 14.5 km/h 54.5% 0 mm 1021 W/m2
12:34 34.7 °C 24.5 °C 1020.2 hPa WSW 0.8 km/h 14.5 km/h 55.6% 0 mm 997 W/m2
12:39 34.8 °C 24.6 °C 1020.2 hPa WSW 1.4 km/h 9.7 km/h 55.4% 0 mm 1016 W/m2
12:44 35.1 °C 24.4 °C 1020.2 hPa WSW 1.4 km/h 9.7 km/h 54.3% 0 mm 1007 W/m2
12:49 35.2 °C 24.4 °C 1019.9 hPa WSW 1.8 km/h 12.9 km/h 53.5% 0 mm 1000 W/m2
12:54 35.2 °C 23.9 °C 1019.9 hPa WSW 2.3 km/h 16.1 km/h 52.3% 0 mm 1037 W/m2
12:59 35.2 °C 24.2 °C 1019.9 hPa WSW 2.9 km/h 19.3 km/h 53% 0 mm 1048 W/m2
13:04 35.2 °C 23.8 °C 1019.9 hPa South 0.8 km/h 19.3 km/h 51.7% 0 mm 984 W/m2
13:09 35 °C 23.3 °C 1019.9 hPa South 1.3 km/h 8 km/h 50.7% 0 mm 981 W/m2
13:14 34.8 °C 22.8 °C 1019.9 hPa SSW 1.4 km/h 9.7 km/h 50% 0 mm 937 W/m2
13:19 34.6 °C 22.8 °C 1019.9 hPa SSE 1.6 km/h 9.7 km/h 50.2% 0 mm 933 W/m2
13:24 34.5 °C 23 °C 1019.9 hPa SSW 0.6 km/h 9.7 km/h 51.4% 0 mm 935 W/m2
13:29 34.3 °C 22.9 °C 1020.2 hPa South 1.6 km/h 9.7 km/h 51.3% 0 mm 877 W/m2
13:34 34.1 °C 22.9 °C 1019.9 hPa SSW 0.6 km/h 11.3 km/h 52% 0 mm 819 W/m2
13:39 34.1 °C 23.4 °C 1020.2 hPa WSW 1.1 km/h 11.3 km/h 53.9% 0 mm 819 W/m2
13:44 34 °C 23.4 °C 1020.2 hPa SW 1.6 km/h 11.3 km/h 54.3% 0 mm 717 W/m2
13:49 34.1 °C 23.8 °C 1019.9 hPa SW 1.9 km/h 11.3 km/h 55.2% 0 mm 717 W/m2
13:54 34.2 °C 23.6 °C 1019.9 hPa WSW 1 km/h 11.3 km/h 54.1% 0 mm 561 W/m2
13:59 34.2 °C 23.4 °C 1019.9 hPa SW 1.3 km/h 11.3 km/h 53.6% 0 mm 216 W/m2
14:04 34.1 °C 23.5 °C 1019.9 hPa SW 0.3 km/h 11.3 km/h 54.4% 0 mm 475 W/m2
14:09 33.8 °C 23.2 °C 1019.9 hPa South 0.5 km/h 6.4 km/h 54% 0 mm 483 W/m2
14:14 33.7 °C 23.2 °C 1019.9 hPa SW 0.6 km/h 6.4 km/h 54.5% 0 mm 598 W/m2
14:19 33.6 °C 23.1 °C 1019.9 hPa South 1.8 km/h 11.3 km/h 54.3% 0 mm 715 W/m2
14:24 33.4 °C 23.1 °C 1019.9 hPa SSW 0.8 km/h 11.3 km/h 54.7% 0 mm 715 W/m2
14:29 33.5 °C 22.9 °C 1019.9 hPa SSW 0.5 km/h 11.3 km/h 54.2% 0 mm 847 W/m2
14:34 33.7 °C 22.9 °C 1019.5 hPa South 1.1 km/h 11.3 km/h 53.6% 0 mm 847 W/m2
14:39 33.8 °C 22.6 °C 1019.5 hPa South 1.3 km/h 8 km/h 52.1% 0 mm 598 W/m2
14:44 33.9 °C 22.6 °C 1019.5 hPa South 0.5 km/h 8 km/h 51.5% 0 mm 380 W/m2
14:49 34.1 °C 22.9 °C 1019.5 hPa South 0.6 km/h 8 km/h 52.2% 0 mm 220 W/m2
14:54 34.2 °C 23.1 °C 1019.5 hPa SW 0.8 km/h 8 km/h 52.5% 0 mm 100 W/m2
14:59 34.4 °C 23.4 °C 1019.5 hPa SW 1.9 km/h 14.5 km/h 52.8% 0 mm 104 W/m2
15:04 34.6 °C 23.3 °C 1019.5 hPa SW 0.2 km/h 14.5 km/h 52.3% 0 mm 79 W/m2
15:09 34.5 °C 23.2 °C 1019.5 hPa SW 0.3 km/h 3.2 km/h 52% 0 mm 79 W/m2
15:14 34.3 °C 23.3 °C 1019.5 hPa SSW 0.5 km/h 4.8 km/h 52.5% 0 mm 83 W/m2
15:19 34.3 °C 23.3 °C 1019.5 hPa SW 1.8 km/h 11.3 km/h 53.1% 0 mm 114 W/m2
15:24 34.2 °C 23.6 °C 1019.2 hPa SW 1.4 km/h 11.3 km/h 54.1% 0 mm 114 W/m2
15:29 34.1 °C 23.4 °C 1019.2 hPa SW 0.5 km/h 11.3 km/h 53.7% 0 mm 72 W/m2
15:34 33.9 °C 23.5 °C 1019.2 hPa SW 2.7 km/h 16.1 km/h 54.5% 0 mm 76 W/m2
15:39 33.9 °C 23.5 °C 1019.2 hPa WSW 0.6 km/h 16.1 km/h 54.7% 0 mm 76 W/m2
15:44 34 °C 23.6 °C 1019.2 hPa SW 0.5 km/h 16.1 km/h 54.8% 0 mm 72 W/m2
15:49 34.1 °C 23.6 °C 1019.2 hPa SSW 0.6 km/h 16.1 km/h 54.2% 0 mm 67 W/m2
15:54 34.1 °C 23.5 °C 1019.2 hPa SSW 0.5 km/h 16.1 km/h 54% 0 mm 76 W/m2
15:59 34.1 °C 23.2 °C 1019.2 hPa South 0.2 km/h 16.1 km/h 53.3% 0 mm 107 W/m2
16:07 33.8 °C 23.3 °C 1019.2 hPa Calm     54.1% 0 mm 72 W/m2
16:14 33.8 °C 23.3 °C 1019.2 hPa SW 0.2 km/h 4.8 km/h 54.2% 0 mm 65 W/m2
16:19 33.7 °C 23.1 °C 1019.2 hPa SW 0.6 km/h 4.8 km/h 54% 0 mm 63 W/m2
16:24 33.5 °C 23 °C 1019.2 hPa SSW 1 km/h 6.4 km/h 54.2% 0 mm 56 W/m2
16:29 33.3 °C 22.8 °C 1019.2 hPa South 0.2 km/h 6.4 km/h 54.3% 0 mm 51 W/m2
16:34 33.1 °C 22.8 °C 1019.2 hPa South 0.6 km/h 6.4 km/h 55% 0 mm 46 W/m2
16:39 32.8 °C 22.7 °C 1018.8 hPa SW 0.5 km/h 6.4 km/h 55.4% 0 mm 40 W/m2
16:44 32.6 °C 22.6 °C 1018.8 hPa Calm   6.4 km/h 56% 0 mm 42 W/m2
16:49 32.3 °C 22.8 °C 1018.8 hPa WSW 0.2 km/h 8 km/h 57.1% 0 mm 40 W/m2
16:54 32.2 °C 22.9 °C 1018.8 hPa South 0.5 km/h 11.3 km/h 58% 0 mm 42 W/m2
16:59 32 °C 22.7 °C 1018.8 hPa SW 0.3 km/h 11.3 km/h 58% 0 mm 49 W/m2
17:04 31.9 °C 22.7 °C 1018.8 hPa South 0.5 km/h 11.3 km/h 58.3% 0 mm 51 W/m2
17:09 31.8 °C 22.8 °C 1018.8 hPa South 0.3 km/h 6.4 km/h 59% 0 mm 53 W/m2
17:14 31.7 °C 22.7 °C 1018.8 hPa South 0.6 km/h 6.4 km/h 59% 0 mm 53 W/m2
17:19 31.6 °C 22.9 °C 1018.8 hPa South 0.5 km/h 6.4 km/h 59.9% 0 mm 49 W/m2
17:24 31.6 °C 22.8 °C 1018.8 hPa Calm   6.4 km/h 60% 0 mm 53 W/m2
17:29 31.5 °C 23 °C 1018.8 hPa Calm   6.4 km/h 60.7% 0 mm 60 W/m2
17:34 31.5 °C 23 °C 1018.8 hPa SW 0.5 km/h 8 km/h 60.7% 0 mm 60 W/m2
17:39 31.6 °C 23.1 °C 1018.8 hPa WSW 0.5 km/h 9.7 km/h 60.8% 0 mm 56 W/m2
17:44 31.6 °C 23.1 °C 1018.8 hPa WSW 0.6 km/h 9.7 km/h 60.6% 0 mm 60 W/m2
17:49 31.6 °C 23.1 °C 1018.8 hPa Calm   9.7 km/h 60.7% 0 mm 60 W/m2
17:54 31.6 °C 23.1 °C 1018.8 hPa SW 0.2 km/h 14.5 km/h 60.7% 0 mm 54 W/m2
17:59 31.6 °C 23.2 °C 1018.8 hPa SW 0.5 km/h 14.5 km/h 61% 0 mm 54 W/m2
18:04 31.7 °C 23.1 °C 1018.8 hPa SW 0.2 km/h 14.5 km/h 60.7% 0 mm 53 W/m2
18:09 31.7 °C 23.2 °C 1018.5 hPa Calm   4.8 km/h 61% 0 mm 49 W/m2
18:14 31.6 °C 23.4 °C 1018.5 hPa SW 1 km/h 9.7 km/h 61.7% 0 mm 44 W/m2
18:19 31.6 °C 23.4 °C 1018.5 hPa Calm   9.7 km/h 62% 0 mm 39 W/m2
18:24 31.6 °C 23.6 °C 1018.8 hPa West 0.3 km/h 9.7 km/h 62.8% 0 mm 35 W/m2
18:29 31.4 °C 23.6 °C 1018.5 hPa West 0.2 km/h 9.7 km/h 63% 0 mm 32 W/m2
18:34 31.3 °C 23.6 °C 1018.5 hPa WSW 0.3 km/h 9.7 km/h 63.5% 0 mm 30 W/m2
18:39 31.2 °C 23.7 °C 1018.5 hPa Calm   9.7 km/h 64.3% 0 mm 30 W/m2
18:44 31.1 °C 23.8 °C 1018.5 hPa South 0.2 km/h 9.7 km/h 65% 0 mm 28 W/m2
18:49 31 °C 23.9 °C 1018.5 hPa SSW 0.2 km/h 9.7 km/h 66% 0 mm 26 W/m2
18:54 30.9 °C 23.9 °C 1018.8 hPa SW 0.5 km/h 9.7 km/h 66.3% 0 mm 26 W/m2
18:59 30.8 °C 23.9 °C 1018.8 hPa Calm   9.7 km/h 67% 0 mm 25 W/m2
19:04 30.6 °C 23.8 °C 1018.8 hPa SSW 0.3 km/h 9.7 km/h 67.2% 0 mm 23 W/m2
19:09 30.4 °C 23.9 °C 1018.8 hPa South 0.5 km/h 6.4 km/h 68% 0 mm 23 W/m2
19:14 30.3 °C 23.8 °C 1018.8 hPa SW 0.3 km/h 6.4 km/h 68.2% 0 mm 21 W/m2
19:19 30.2 °C 23.8 °C 1018.8 hPa Calm   6.4 km/h 69% 0 mm 21 W/m2
19:24 30.1 °C 23.8 °C 1018.8 hPa SW 0.3 km/h 6.4 km/h 69.3% 0 mm 21 W/m2
19:29 29.9 °C 23.9 °C 1018.8 hPa SW 0.2 km/h 6.4 km/h 70% 0 mm 21 W/m2
19:34 29.8 °C 23.7 °C 1018.8 hPa WSW 0.3 km/h 6.4 km/h 70% 0 mm 16 W/m2
19:39 29.7 °C 23.7 °C 1019.2 hPa SW 0.2 km/h 3.2 km/h 70% 0 mm 11 W/m2
19:44 29.6 °C 23.7 °C 1018.8 hPa Calm   3.2 km/h 70.7% 0 mm 9 W/m2
19:49 29.5 °C 23.7 °C 1018.8 hPa Calm   3.2 km/h 71% 0 mm 7 W/m2
19:54 29.3 °C 23.6 °C 1019.2 hPa SSW 0.2 km/h 3.2 km/h 71% 0 mm 0 W/m2
19:59 29.2 °C 23.4 °C 1019.2 hPa South 0.2 km/h 3.2 km/h 71% 0 mm 0 W/m2
20:00 29.2 °C 23.4 °C 1019.2 hPa Calm   3.2 km/h 71% 0 mm 0 W/m2
20:09 29 °C 23.4 °C 1019.2 hPa Calm     72% 0 mm 0 W/m2
20:14 28.9 °C 23.4 °C 1019.2 hPa Calm     72% 0 mm 0 W/m2
20:18 28.8 °C 23.3 °C 1019.2 hPa Calm   3.2 km/h 72% 0 mm 0 W/m2
20:30 28.6 °C 23.3 °C 1019.2 hPa Calm   6.4 km/h 73% 0 mm 0 W/m2
21:00 28.1 °C 23.2 °C 1019.5 hPa Calm   4.8 km/h 75% 0 mm 0 W/m2
22:00 27.3 °C 23.1 °C 1020.2 hPa Calm     78% 0 mm 0 W/m2
22:30 27.1 °C 23.1 °C 1020.2 hPa Calm   1.6 km/h 79% 0 mm 0 W/m2
23:00 26.8 °C 23.3 °C 1020.2 hPa Calm   1.6 km/h 81% 0 mm 0 W/m2
23:30 26.6 °C 23.4 °C 1020.2 hPa Calm   4.8 km/h 83% 0 mm 0 W/m2
Hartford County Weather
Compliments of Weather Underground - 2 mb